San Francisco, California
Current Conditions -  °F | °C
As of 6:56 AM on Thursday 23 Oct 2014 (Local Time) from KSFO Reporting Station
Broken Clouds Broken Clouds  
Wind Chill: 17°   Ceiling: 18000
Heat Index: 17°   Visibility: 10mi
Dew Point: 16°   Wind: 3mph
Humidity: 90%   Direction: 160°SSE
Pressure: 30.04"   Gusts: NA
Location:  37.78°N, 122.42°W
Report Text: KSFO 231356Z 16003KT 10SM FEW017 BKN180 17/16 A3004 RMK AO2 SLP172 T01720156 $
Loading
Personal Weather Stations






























Interactive Weather Map
Tropical Storm Tracking
New forecast layout! Learn more

10-Day Weather Forecast

Advertisements
Track Severe Weather on mobile